Tipton, Indiana
Current Conditions -  °F | °C
As of 4:15 AM on Monday 22 Dec 2014 (Local Time) from KOKK Reporting Station
Clear Clear  
Wind Chill: 22°   Ceiling: Unl
Heat Index: 28°   Visibility: 6mi
Dew Point: 25°   Wind: 6mph
Humidity: 86%   Direction: 120°ESE
Pressure: 30.02"   Gusts: NA
Location:  40.28°N, 86.04°W
Report Text: KOKK 220915Z AUTO 12005KT 6SM CLR M02/M04 A3002 RMK AO1
Loading
Personal Weather Stations






























Interactive Weather Map New forecast layout! Learn more

10-Day Weather Forecast

Advertisements
Track Severe Weather on mobile